Time;durP1;ratioP1;P1;durP2;ratioP2;P2;SDS_P1;SDS_P2;PMS_P1;PMS_P2;Temp;Humidity;BMP_temperature;BMP_pressure;BME280_temperature;BME280_humidity;BME280_pressure;Samples;Min_cycle;Max_cycle;Signal;HPM_P1;HPM_P2
2023/09/18 00:00:27;;;;;;;;;;;;;;;16.40;100.00;100255.78;5075241;28;832;-61
2023/09/18 00:02:54;;;;;;;;;;;;;;;16.43;100.00;100254.13;5075159;28;1206;-61
2023/09/18 00:05:21;;;;;;;;;;;;;;;16.39;100.00;100248.66;5074880;28;1243;-61
2023/09/18 00:07:49;;;;;;;;;;;;;;;16.35;100.00;100249.94;5057029;28;1953;-60
2023/09/18 00:10:15;;;;;;;;;;;;;;;16.27;100.00;100244.50;5074901;28;879;-60
2023/09/18 00:12:43;;;;;;;;;;;;;;;16.28;100.00;100250.84;5075112;28;1238;-61
2023/09/18 00:15:08;;;;;;;;;;;;;;;16.31;100.00;100241.63;5074619;28;1420;-61
2023/09/18 00:17:38;;;;;;;;;;;;;;;16.26;100.00;100248.50;5074589;28;878;-60
2023/09/18 00:20:09;;;;;;;;;;;;;;;16.06;100.00;100203.91;5074713;28;839;-61
2023/09/18 00:22:36;;;;;;;;;;;;;;;16.17;100.00;100239.94;5074540;28;910;-61
2023/09/18 00:25:03;;;;;;;;;;;;;;;16.08;100.00;100240.50;5074382;28;812;-60
2023/09/18 00:27:30;;;;;;;;;;;;;;;15.99;100.00;100245.88;5074338;28;2036;-61
2023/09/18 00:29:57;;;;;;;;;;;;;;;15.89;100.00;100242.06;5074679;28;864;-61
2023/09/18 00:32:23;;;;;;;;;;;;;;;15.85;100.00;100238.59;5074373;28;847;-61
2023/09/18 00:34:50;;;;;;;;;;;;;;;15.85;100.00;100235.00;5074300;28;906;-61
2023/09/18 00:37:17;;;;;;;;;;;;;;;15.87;100.00;100241.75;5056315;28;1291;-61
2023/09/18 00:39:44;;;;;;;;;;;;;;;15.91;100.00;100238.88;5074179;28;882;-61
2023/09/18 00:42:16;;;;;;;;;;;;;;;15.92;100.00;100234.88;5074461;28;823;-61
2023/09/18 00:44:42;;;;;;;;;;;;;;;15.92;100.00;100238.44;5074194;28;890;-61
2023/09/18 00:47:10;;;;;;;;;;;;;;;15.92;100.00;100234.88;5074002;28;1925;-61
2023/09/18 00:49:40;;;;;;;;;;;;;;;15.86;100.00;100233.81;5056136;28;1382;-61
2023/09/18 00:52:08;;;;;;;;;;;;;;;15.79;100.00;100231.94;5055954;28;1334;-61
2023/09/18 00:54:36;;;;;;;;;;;;;;;15.81;100.00;100232.31;5074077;28;871;-61
2023/09/18 00:57:04;;;;;;;;;;;;;;;15.82;100.00;100227.50;5073812;28;883;-61
2023/09/18 00:59:31;;;;;;;;;;;;;;;15.78;100.00;100230.34;5073859;28;914;-61
2023/09/18 01:01:58;;;;;;;;;;;;;;;15.76;100.00;100223.66;5073748;28;812;-61
2023/09/18 01:04:28;;;;;;;;;;;;;;;15.85;100.00;100227.44;5073878;28;835;-61
2023/09/18 01:06:57;;;;;;;;;;;;;;;15.89;100.00;100227.34;5073577;28;820;-60
2023/09/18 01:09:25;;;;;;;;;;;;;;;15.99;100.00;100223.56;5073677;28;1886;-61
2023/09/18 01:12:04;;;;;;;;;;;;;;;15.98;100.00;100224.81;5073813;28;1306;-61
2023/09/18 01:14:39;;;;;;;;;;;;;;;16.01;100.00;100225.94;5073532;28;935;-61
2023/09/18 01:17:10;;;;;;;;;;;;;;;16.03;100.00;100227.09;5073480;28;1278;-60
2023/09/18 01:19:41;;;;;;;;;;;;;;;16.11;100.00;100228.50;5073254;28;823;-61
2023/09/18 01:22:09;;;;;;;;;;;;;;;16.13;100.00;100226.06;5073459;28;826;-61
2023/09/18 01:24:37;;;;;;;;;;;;;;;16.14;100.00;100221.28;5073187;28;802;-61
2023/09/18 01:27:08;;;;;;;;;;;;;;;16.10;100.00;100224.13;5073266;28;1906;-61
2023/09/18 01:29:36;;;;;;;;;;;;;;;16.07;100.00;100219.44;5073263;28;875;-61
2023/09/18 01:32:03;;;;;;;;;;;;;;;15.99;100.00;100220.78;5073191;28;968;-60
2023/09/18 01:34:33;;;;;;;;;;;;;;;15.91;100.00;100219.34;5073182;28;812;-61
2023/09/18 01:37:00;;;;;;;;;;;;;;;15.87;100.00;100229.78;5073002;28;882;-61
2023/09/18 01:39:31;;;;;;;;;;;;;;;15.84;100.00;100217.50;5073072;28;867;-60
2023/09/18 01:41:59;;;;;;;;;;;;;;;15.85;100.00;100221.88;5073406;28;1296;-60
2023/09/18 01:44:27;;;;;;;;;;;;;;;15.91;100.00;100216.56;5073079;28;788;-62
2023/09/18 01:46:56;;;;;;;;;;;;;;;15.96;100.00;100210.50;5072992;28;871;-62
2023/09/18 01:49:38;;;;;;;;;;;;;;;15.98;100.00;100213.66;5072810;28;1882;-60
2023/09/18 01:52:07;;;;;;;;;;;;;;;15.99;100.00;100215.22;5073008;28;871;-60
2023/09/18 01:54:34;;;;;;;;;;;;;;;15.97;100.00;100214.06;5072794;28;1163;-60
2023/09/18 01:57:02;;;;;;;;;;;;;;;15.94;100.00;100218.50;5073020;28;815;-60
2023/09/18 01:59:29;;;;;;;;;;;;;;;15.93;100.00;100222.50;5072831;28;835;-61
2023/09/18 02:01:56;;;;;;;;;;;;;;;15.92;100.00;100223.72;5072923;28;863;-60
2023/09/18 02:04:23;;;;;;;;;;;;;;;15.90;100.00;100215.78;5072869;28;831;-60
2023/09/18 02:06:50;;;;;;;;;;;;;;;15.90;100.00;100215.78;5072733;28;863;-60
2023/09/18 02:09:18;;;;;;;;;;;;;;;15.88;100.00;100211.88;5054460;28;1898;-60
2023/09/18 02:11:45;;;;;;;;;;;;;;;15.82;100.00;100214.34;5072549;28;996;-60
2023/09/18 02:14:13;;;;;;;;;;;;;;;15.83;100.00;100215.13;5072317;28;870;-61
2023/09/18 02:16:41;;;;;;;;;;;;;;;15.83;100.00;100209.56;5070913;28;1433;-60
2023/09/18 02:19:09;;;;;;;;;;;;;;;15.80;100.00;100213.22;5071639;28;895;-60
2023/09/18 02:21:39;;;;;;;;;;;;;;;15.79;100.00;100206.06;5072178;28;860;-60
2023/09/18 02:24:07;;;;;;;;;;;;;;;15.77;100.00;100214.06;5072450;28;823;-60
2023/09/18 02:26:34;;;;;;;;;;;;;;;15.78;100.00;100213.63;5072188;28;835;-60
2023/09/18 02:29:03;;;;;;;;;;;;;;;15.84;100.00;100216.72;5072167;28;1918;-60
2023/09/18 02:31:30;;;;;;;;;;;;;;;15.84;100.00;100214.72;5072084;28;914;-60
2023/09/18 02:33:58;;;;;;;;;;;;;;;15.82;100.00;100221.94;5072271;28;838;-61
2023/09/18 02:36:25;;;;;;;;;;;;;;;15.81;100.00;100221.16;5072036;28;887;-60
2023/09/18 02:38:52;;;;;;;;;;;;;;;15.84;100.00;100227.88;5071859;28;864;-60
2023/09/18 02:41:19;;;;;;;;;;;;;;;15.87;100.00;100225.03;5071989;28;891;-60
2023/09/18 02:43:46;;;;;;;;;;;;;;;15.89;100.00;100217.00;5071875;28;883;-60
2023/09/18 02:46:13;;;;;;;;;;;;;;;15.89;100.00;100224.56;5072094;28;867;-60
2023/09/18 02:48:40;;;;;;;;;;;;;;;15.97;100.00;100225.22;5072017;28;1979;-60
2023/09/18 02:51:07;;;;;;;;;;;;;;;15.99;100.00;100217.22;5071932;28;820;-60
2023/09/18 02:53:35;;;;;;;;;;;;;;;16.01;100.00;100225.94;5071647;28;820;-60
2023/09/18 02:56:01;;;;;;;;;;;;;;;16.04;100.00;100217.47;5071817;28;823;-60
2023/09/18 02:58:30;;;;;;;;;;;;;;;16.04;100.00;100223.06;5071825;28;808;-60
2023/09/18 03:01:02;;;;;;;;;;;;;;;15.97;100.00;100214.84;5071761;28;891;-60
2023/09/18 03:03:29;;;;;;;;;;;;;;;16.01;100.00;100217.56;5071621;28;805;-60
2023/09/18 03:06:06;;;;;;;;;;;;;;;16.05;100.00;100224.66;5071697;28;816;-60
2023/09/18 03:08:33;;;;;;;;;;;;;;;16.03;100.00;100221.50;5071580;28;1893;-60
2023/09/18 03:11:00;;;;;;;;;;;;;;;15.98;100.00;100229.56;5071525;28;999;-61
2023/09/18 03:13:28;;;;;;;;;;;;;;;15.88;100.00;100225.81;5071636;28;877;-60
2023/09/18 03:15:56;;;;;;;;;;;;;;;15.82;100.00;100224.72;5071615;28;1168;-60
2023/09/18 03:18:23;;;;;;;;;;;;;;;15.75;100.00;100225.66;5053543;28;1207;-60
2023/09/18 03:20:50;;;;;;;;;;;;;;;15.70;100.00;100226.09;5071579;28;828;-60
2023/09/18 03:23:18;;;;;;;;;;;;;;;15.65;100.00;100237.75;5071547;28;863;-60
2023/09/18 03:25:45;;;;;;;;;;;;;;;15.58;100.00;100244.25;5071424;28;852;-60
2023/09/18 03:28:12;;;;;;;;;;;;;;;15.55;100.00;100247.09;5071367;28;1909;-60
2023/09/18 03:30:40;;;;;;;;;;;;;;;15.57;100.00;100248.22;5072686;28;833;-60
2023/09/18 03:33:07;;;;;;;;;;;;;;;15.59;100.00;100236.66;5075476;28;867;-60
2023/09/18 03:35:45;;;;;;;;;;;;;;;15.61;100.00;100237.03;5075501;28;832;-60
2023/09/18 03:38:12;;;;;;;;;;;;;;;15.61;100.00;100239.81;5075448;28;844;-61
2023/09/18 03:40:39;;;;;;;;;;;;;;;15.58;100.00;100240.69;5075238;28;914;-60
2023/09/18 03:43:07;;;;;;;;;;;;;;;15.53;100.00;100239.16;5075356;28;825;-60
2023/09/18 03:45:34;;;;;;;;;;;;;;;15.50;100.00;100245.59;5075305;28;902;-60
2023/09/18 03:48:01;;;;;;;;;;;;;;;15.55;100.00;100235.94;5075119;28;1947;-60
2023/09/18 03:50:28;;;;;;;;;;;;;;;15.64;100.00;100242.56;5075281;28;854;-61
2023/09/18 03:52:55;;;;;;;;;;;;;;;15.69;100.00;100235.69;5075142;28;902;-61
2023/09/18 03:55:23;;;;;;;;;;;;;;;15.74;100.00;100242.78;5090654;28;1326;-60
2023/09/18 03:57:50;;;;;;;;;;;;;;;15.76;100.00;100241.16;5075039;28;866;-60
2023/09/18 04:00:16;;;;;;;;;;;;;;;15.76;100.00;100243.94;5074983;28;828;-61
2023/09/18 04:02:43;;;;;;;;;;;;;;;15.79;100.00;100245.88;5074871;28;871;-60
2023/09/18 04:05:10;;;;;;;;;;;;;;;15.84;100.00;100247.38;5075072;28;831;-60
2023/09/18 04:07:36;;;;;;;;;;;;;;;15.89;100.00;100256.00;5090290;28;1885;-60
2023/09/18 04:10:03;;;;;;;;;;;;;;;15.90;100.00;100252.03;5074848;28;839;-60
2023/09/18 04:12:31;;;;;;;;;;;;;;;15.91;100.00;100250.78;5074626;28;914;-60
2023/09/18 04:14:57;;;;;;;;;;;;;;;15.89;100.00;100247.66;5074466;28;1208;-60
2023/09/18 04:17:24;;;;;;;;;;;;;;;15.91;100.00;100252.81;5074776;28;851;-61
2023/09/18 04:19:50;;;;;;;;;;;;;;;15.90;100.00;100256.81;5074535;28;926;-60
2023/09/18 04:22:17;;;;;;;;;;;;;;;15.91;100.00;100253.59;5074606;28;839;-62
2023/09/18 04:24:44;;;;;;;;;;;;;;;15.93;100.00;100248.38;5074856;28;835;-60
2023/09/18 04:27:11;;;;;;;;;;;;;;;15.97;100.00;100239.16;5074563;28;1890;-60
2023/09/18 04:29:38;;;;;;;;;;;;;;;15.78;100.00;100218.44;5074400;28;835;-61
2023/09/18 04:32:06;;;;;;;;;;;;;;;16.03;100.00;100252.16;5090182;28;1247;-60
2023/09/18 04:34:34;;;;;;;;;;;;;;;16.13;100.00;100239.25;5074377;28;847;-61
2023/09/18 04:37:03;;;;;;;;;;;;;;;16.17;100.00;100253.88;5074528;28;870;-60
2023/09/18 04:39:30;;;;;;;;;;;;;;;16.17;100.00;100248.28;5074251;28;899;-60
2023/09/18 04:41:56;;;;;;;;;;;;;;;16.20;100.00;100255.03;5073525;28;919;-60
2023/09/18 04:44:24;;;;;;;;;;;;;;;16.22;100.00;100252.59;5074132;28;827;-60
2023/09/18 04:46:51;;;;;;;;;;;;;;;16.23;100.00;100251.38;5074129;28;816;-60
2023/09/18 04:49:19;;;;;;;;;;;;;;;16.26;100.00;100256.09;5074295;28;1885;-61
2023/09/18 04:51:46;;;;;;;;;;;;;;;16.22;100.00;100258.19;5055833;28;1183;-60
2023/09/18 04:54:13;;;;;;;;;;;;;;;16.21;100.00;100262.16;5074027;28;875;-60
2023/09/18 04:56:39;;;;;;;;;;;;;;;16.24;100.00;100258.53;5073879;28;871;-61
2023/09/18 04:59:06;;;;;;;;;;;;;;;16.31;100.00;100261.16;5073894;28;868;-60
2023/09/18 05:01:33;;;;;;;;;;;;;;;16.39;100.00;100268.16;5073820;28;824;-60
2023/09/18 05:04:00;;;;;;;;;;;;;;;16.49;100.00;100266.34;5073824;28;910;-60
2023/09/18 05:06:30;;;;;;;;;;;;;;;16.56;100.00;100263.41;5073963;28;918;-60
2023/09/18 05:08:57;;;;;;;;;;;;;;;16.63;100.00;100262.47;5073641;28;1909;-60
2023/09/18 05:11:24;;;;;;;;;;;;;;;16.72;100.00;100262.66;5073604;28;1027;-60
2023/09/18 05:13:52;;;;;;;;;;;;;;;16.74;100.00;100263.00;5089111;28;918;-60
2023/09/18 05:16:20;;;;;;;;;;;;;;;16.81;100.00;100260.06;5073461;28;1457;-60
2023/09/18 05:18:47;;;;;;;;;;;;;;;16.85;100.00;100258.00;5073529;28;847;-60
2023/09/18 05:21:14;;;;;;;;;;;;;;;17.01;100.00;100260.03;5073387;28;935;-60
2023/09/18 05:23:41;;;;;;;;;;;;;;;17.16;100.00;100257.66;5073406;28;1025;-59
2023/09/18 05:26:08;;;;;;;;;;;;;;;17.25;100.00;100266.22;5073571;28;839;-60
2023/09/18 05:28:35;;;;;;;;;;;;;;;17.35;100.00;100259.56;5073229;28;1971;-61
2023/09/18 05:31:03;;;;;;;;;;;;;;;17.48;100.00;100262.44;5073275;28;800;-60
2023/09/18 05:33:30;;;;;;;;;;;;;;;17.54;100.00;100266.28;5073355;28;824;-60
2023/09/18 05:35:58;;;;;;;;;;;;;;;17.59;100.00;100264.94;5073145;28;911;-60
2023/09/18 05:38:25;;;;;;;;;;;;;;;17.63;100.00;100262.84;5073200;28;803;-60
2023/09/18 05:40:52;;;;;;;;;;;;;;;17.66;100.00;100273.13;5073300;28;831;-60
2023/09/18 05:43:18;;;;;;;;;;;;;;;17.67;100.00;100259.97;5073016;28;823;-60
2023/09/18 05:45:50;;;;;;;;;;;;;;;17.70;100.00;100265.44;5073019;28;894;-60
2023/09/18 05:48:17;;;;;;;;;;;;;;;17.76;100.00;100276.88;5072821;28;1949;-60
2023/09/18 05:50:43;;;;;;;;;;;;;;;17.84;100.00;100269.91;5072860;28;843;-60
2023/09/18 05:53:10;;;;;;;;;;;;;;;18.01;100.00;100276.22;5072680;28;811;-60
2023/09/18 05:55:36;;;;;;;;;;;;;;;18.23;100.00;100275.63;5072070;28;803;-59
2023/09/18 05:58:04;;;;;;;;;;;;;;;18.43;100.00;100279.00;5072760;28;837;-59
2023/09/18 06:00:31;;;;;;;;;;;;;;;18.60;100.00;100281.72;5088415;28;1210;-60
2023/09/18 06:02:58;;;;;;;;;;;;;;;18.75;100.00;100286.47;5072630;28;926;-60
2023/09/18 06:05:25;;;;;;;;;;;;;;;18.93;100.00;100287.94;5072587;28;908;-60
2023/09/18 06:07:52;;;;;;;;;;;;;;;19.11;100.00;100290.16;5072479;28;1889;-60
2023/09/18 06:10:19;;;;;;;;;;;;;;;19.22;100.00;100295.41;5072549;28;1064;-59
2023/09/18 06:12:47;;;;;;;;;;;;;;;19.37;100.00;100302.13;5072784;28;913;-59
2023/09/18 06:15:14;;;;;;;;;;;;;;;19.48;100.00;100296.16;5072345;28;1084;-60
2023/09/18 06:17:42;;;;;;;;;;;;;;;19.64;100.00;100281.22;5052384;28;836;-60
2023/09/18 06:20:09;;;;;;;;;;;;;;;19.77;100.00;100287.56;5052350;28;866;-60
2023/09/18 06:22:40;;;;;;;;;;;;;;;19.78;100.00;100286.34;5052299;28;835;-60
2023/09/18 06:25:09;;;;;;;;;;;;;;;19.79;100.00;100291.50;5052398;28;809;-60
2023/09/18 06:27:37;;;;;;;;;;;;;;;19.92;100.00;100283.03;5052182;28;1906;-61
2023/09/18 06:30:05;;;;;;;;;;;;;;;20.01;100.00;100287.91;5052162;28;827;-59
2023/09/18 06:32:33;;;;;;;;;;;;;;;20.03;100.00;100279.81;5052155;28;880;-60
2023/09/18 06:35:00;;;;;;;;;;;;;;;20.04;100.00;100275.03;5052008;28;801;-60
2023/09/18 06:37:27;;;;;;;;;;;;;;;20.38;100.00;100286.16;5052061;28;871;-59
2023/09/18 06:39:55;;;;;;;;;;;;;;;21.07;100.00;100281.50;5052306;28;866;-59
2023/09/18 07:13:24;;;;;;;;;;;;;;;24.23;100.00;100280.84;5484599;22;1804;-71
2023/09/18 07:15:51;;;;;;;;;;;;;;;24.41;100.00;100274.22;5071953;28;839;-71
2023/09/18 07:18:18;;;;;;;;;;;;;;;24.83;100.00;100290.88;5071562;28;868;-69
2023/09/18 07:20:46;;;;;;;;;;;;;;;25.00;100.00;100282.66;5071612;28;1029;-70
2023/09/18 07:26:36;;;;;;;;;;;;;;;24.79;100.00;100289.53;5071005;28;977;-71
2023/09/18 07:29:03;;;;;;;;;;;;;;;25.55;100.00;100283.19;5051438;28;1910;-72
2023/09/18 07:31:30;;;;;;;;;;;;;;;25.63;100.00;100278.66;5051602;28;829;-73
2023/09/18 07:33:57;;;;;;;;;;;;;;;25.23;100.00;100289.44;5050535;28;1403;-70
2023/09/18 07:36:24;;;;;;;;;;;;;;;25.38;100.00;100288.63;5051332;28;881;-71
2023/09/18 07:38:51;;;;;;;;;;;;;;;25.60;100.00;100286.06;5051474;28;824;-71
2023/09/18 07:41:19;;;;;;;;;;;;;;;25.77;100.00;100297.59;5051285;28;936;-71
2023/09/18 07:43:45;;;;;;;;;;;;;;;26.19;100.00;100298.34;5051219;28;906;-71
2023/09/18 07:46:11;;;;;;;;;;;;;;;26.35;100.00;100299.78;5051439;28;816;-73
2023/09/18 07:48:37;;;;;;;;;;;;;;;26.32;100.00;100290.22;5051242;28;1955;-71
2023/09/18 07:51:04;;;;;;;;;;;;;;;26.93;100.00;100302.59;5051507;28;908;-70
2023/09/18 07:53:32;;;;;;;;;;;;;;;27.11;100.00;100285.19;5051372;28;824;-71
2023/09/18 07:56:05;;;;;;;;;;;;;;;27.07;100.00;100290.31;5051316;28;859;-71
2023/09/18 07:58:33;;;;;;;;;;;;;;;26.96;100.00;100298.78;5051005;28;895;-69
2023/09/18 08:01:00;;;;;;;;;;;;;;;26.68;100.00;100294.44;5033338;28;823;-70
2023/09/18 08:03:26;;;;;;;;;;;;;;;26.13;100.00;100292.63;5051295;28;898;-72
2023/09/18 08:05:54;;;;;;;;;;;;;;;25.14;100.00;100288.78;5051141;28;927;-70
2023/09/18 08:08:21;;;;;;;;;;;;;;;24.33;100.00;100299.28;5051073;28;1878;-71
2023/09/18 08:10:51;;;;;;;;;;;;;;;23.86;100.00;100300.19;5051100;28;914;-70
2023/09/18 08:13:19;;;;;;;;;;;;;;;23.94;100.00;100301.34;5044051;28;1274;-71
2023/09/18 08:15:46;;;;;;;;;;;;;;;24.71;100.00;100286.34;5031431;28;1219;-69
2023/09/18 08:18:15;;;;;;;;;;;;;;;25.08;100.00;100294.34;5033197;28;1290;-69
2023/09/18 08:20:44;;;;;;;;;;;;;;;25.02;100.00;100288.59;5034909;28;941;-71
2023/09/18 08:23:11;;;;;;;;;;;;;;;25.75;100.00;100285.97;5034814;28;840;-72
2023/09/18 08:25:39;;;;;;;;;;;;;;;25.42;100.00;100287.13;5034474;28;890;-71
2023/09/18 08:28:06;;;;;;;;;;;;;;;24.79;100.00;100293.16;5034613;28;1960;-71
2023/09/18 08:30:34;;;;;;;;;;;;;;;24.21;100.00;100286.97;5034542;28;836;-73
2023/09/18 08:33:00;;;;;;;;;;;;;;;23.90;100.00;100289.47;5034473;28;812;-71
2023/09/18 08:35:29;;;;;;;;;;;;;;;23.76;100.00;100291.78;5034403;28;895;-70
2023/09/18 08:37:55;;;;;;;;;;;;;;;23.65;100.00;100283.06;5034382;28;840;-71
2023/09/18 08:40:20;;;;;;;;;;;;;;;23.38;100.00;100281.19;5034380;28;854;-68
2023/09/18 08:42:48;;;;;;;;;;;;;;;23.42;100.00;100285.41;5034145;28;903;-70
2023/09/18 08:45:33;;;;;;;;;;;;;;;23.19;100.00;100278.50;5034282;28;891;-68
2023/09/18 08:48:01;;;;;;;;;;;;;;;23.08;100.00;100289.53;5034453;28;1890;-69
2023/09/18 08:50:29;;;;;;;;;;;;;;;23.09;100.00;100285.47;5016435;28;875;-69
2023/09/18 08:52:57;;;;;;;;;;;;;;;23.00;100.00;100285.44;5034153;28;852;-68
2023/09/18 08:55:24;;;;;;;;;;;;;;;22.80;100.00;100289.63;5034156;28;816;-68
2023/09/18 08:57:52;;;;;;;;;;;;;;;22.78;100.00;100289.31;5034210;28;838;-69
2023/09/18 09:00:19;;;;;;;;;;;;;;;22.87;100.00;100291.31;5033928;28;847;-69
2023/09/18 09:02:48;;;;;;;;;;;;;;;22.87;100.00;100290.53;5034038;28;888;-69
2023/09/18 09:05:15;;;;;;;;;;;;;;;22.83;100.00;100294.31;5033831;28;891;-69
2023/09/18 09:07:41;;;;;;;;;;;;;;;23.01;100.00;100292.69;5033980;28;1886;-69
2023/09/18 09:10:09;;;;;;;;;;;;;;;22.97;100.00;100295.66;5033774;28;831;-69
2023/09/18 09:12:57;;;;;;;;;;;;;;;22.93;100.00;100297.09;5034012;28;1189;-69
2023/09/18 09:15:45;;;;;;;;;;;;;;;22.77;100.00;100281.34;5033672;28;895;-67
2023/09/18 09:18:11;;;;;;;;;;;;;;;22.54;100.00;100292.06;5033760;28;883;-69
2023/09/18 09:20:37;;;;;;;;;;;;;;;22.54;100.00;100286.41;5033518;28;1380;-68
2023/09/18 09:23:06;;;;;;;;;;;;;;;22.72;100.00;100287.63;5033557;28;836;-69
2023/09/18 09:25:34;;;;;;;;;;;;;;;22.92;100.00;100284.25;5033409;28;796;-69
2023/09/18 09:28:03;;;;;;;;;;;;;;;23.26;100.00;100277.38;5015430;28;1961;-71
2023/09/18 09:30:31;;;;;;;;;;;;;;;23.43;100.00;100281.34;5033469;28;808;-70
2023/09/18 09:32:58;;;;;;;;;;;;;;;23.76;100.00;100274.84;5033403;28;880;-71
2023/09/18 09:35:29;;;;;;;;;;;;;;;24.22;100.00;100268.78;5033369;28;827;-70
2023/09/18 09:38:09;;;;;;;;;;;;;;;24.70;100.00;100267.81;5033393;28;832;-69
2023/09/18 09:40:40;;;;;;;;;;;;;;;25.17;100.00;100262.31;5033261;28;898;-70
2023/09/18 09:43:08;;;;;;;;;;;;;;;25.41;100.00;100259.31;5033184;28;828;-70
2023/09/18 09:45:35;;;;;;;;;;;;;;;25.72;100.00;100257.91;5033188;28;866;-72
2023/09/18 09:48:04;;;;;;;;;;;;;;;25.72;100.00;100260.75;5032786;28;1886;-74
2023/09/18 09:50:32;;;;;;;;;;;;;;;26.33;100.00;100257.00;5033117;28;856;-75
2023/09/18 09:52:59;;;;;;;;;;;;;;;26.77;100.00;100253.78;5030553;28;1437;-69
2023/09/18 09:55:37;;;;;;;;;;;;;;;26.41;100.00;100255.28;5032917;28;881;-72
2023/09/18 09:58:05;;;;;;;;;;;;;;;26.45;100.00;100250.16;5032843;28;845;-72
2023/09/18 10:00:45;;;;;;;;;;;;;;;26.94;100.00;100248.22;5032763;28;879;-70
2023/09/18 10:03:18;;;;;;;;;;;;;;;26.68;100.00;100237.72;5032850;28;867;-71
2023/09/18 10:05:46;;;;;;;;;;;;;;;25.94;100.00;100238.34;5032711;28;895;-71
2023/09/18 10:08:18;;;;;;;;;;;;;;;25.46;100.00;100236.78;5032682;28;1943;-70
2023/09/18 10:10:50;;;;;;;;;;;;;;;25.47;100.00;100229.06;5032594;28;821;-71
2023/09/18 10:13:20;;;;;;;;;;;;;;;25.96;100.00;100227.31;5032710;28;1371;-70
2023/09/18 10:15:49;;;;;;;;;;;;;;;26.92;100.00;100228.09;5032608;28;875;-70
2023/09/18 10:18:28;;;;;;;;;;;;;;;27.46;100.00;100230.19;5032912;28;1219;-70
2023/09/18 10:21:13;;;;;;;;;;;;;;;27.67;100.00;100230.78;5014730;28;1192;-70
2023/09/18 10:24:09;;;;;;;;;;;;;;;27.74;79.56;100227.47;5032401;28;863;-70
2023/09/18 10:26:41;;;;;;;;;;;;;;;28.22;81.46;100225.75;5019191;28;1239;-70
2023/09/18 10:29:11;;;;;;;;;;;;;;;28.69;80.20;100208.94;5032591;28;1906;-70
2023/09/18 10:31:40;;;;;;;;;;;;;;;28.83;69.96;100210.72;5014507;28;1416;-71
2023/09/18 10:34:08;;;;;;;;;;;;;;;28.99;72.25;100209.13;5032246;28;908;-69
2023/09/18 10:36:35;;;;;;;;;;;;;;;29.01;64.29;100223.59;5032174;28;824;-69
2023/09/18 10:39:08;;;;;;;;;;;;;;;28.98;70.99;100209.66;5031994;28;887;-70
2023/09/18 10:41:35;;;;;;;;;;;;;;;28.99;69.18;100206.28;5031547;28;902;-69
2023/09/18 10:44:04;;;;;;;;;;;;;;;28.88;65.28;100195.72;5032052;28;914;-69
2023/09/18 10:46:32;;;;;;;;;;;;;;;28.66;67.82;100207.16;5032006;28;887;-68
2023/09/18 10:49:00;;;;;;;;;;;;;;;28.49;65.89;100201.47;5031855;28;1886;-68
2023/09/18 10:51:27;;;;;;;;;;;;;;;28.32;65.73;100192.94;5032010;28;1004;-69
2023/09/18 10:53:56;;;;;;;;;;;;;;;28.35;68.53;100194.72;5031792;28;903;-68
2023/09/18 10:56:24;;;;;;;;;;;;;;;28.48;68.20;100192.16;5032014;28;902;-69
2023/09/18 10:58:59;;;;;;;;;;;;;;;28.60;65.96;100198.63;5030674;28;1590;-70
2023/09/18 11:01:28;;;;;;;;;;;;;;;28.81;70.75;100189.81;5032110;28;833;-68
2023/09/18 11:03:59;;;;;;;;;;;;;;;28.91;63.98;100189.00;5031851;28;827;-69
2023/09/18 11:06:26;;;;;;;;;;;;;;;28.99;72.04;100192.06;5031827;28;843;-69
2023/09/18 11:09:14;;;;;;;;;;;;;;;29.23;64.74;100185.00;5031563;28;1878;-70
2023/09/18 11:11:42;;;;;;;;;;;;;;;29.05;64.21;100184.28;5031671;28;1159;-69
2023/09/18 11:14:11;;;;;;;;;;;;;;;28.82;64.89;100177.13;5031476;28;1272;-69
2023/09/18 11:16:38;;;;;;;;;;;;;;;28.81;58.83;100184.88;5031731;28;930;-68
2023/09/18 11:19:08;;;;;;;;;;;;;;;28.74;63.86;100178.94;5031659;28;851;-69
2023/09/18 11:21:36;;;;;;;;;;;;;;;28.91;56.62;100165.44;5031603;28;867;-68
2023/09/18 11:24:04;;;;;;;;;;;;;;;29.00;56.18;100172.94;5031628;28;1002;-69
2023/09/18 11:26:33;;;;;;;;;;;;;;;28.99;56.45;100174.97;5031574;28;903;-68
2023/09/18 11:29:05;;;;;;;;;;;;;;;29.25;59.10;100173.88;5031710;28;1973;-67
2023/09/18 11:31:45;;;;;;;;;;;;;;;29.88;58.56;100164.47;5031434;28;859;-68
2023/09/18 11:34:21;;;;;;;;;;;;;;;30.02;57.86;100178.88;5031511;28;817;-68
2023/09/18 11:36:49;;;;;;;;;;;;;;;29.80;51.96;100166.34;5031571;28;893;-69
2023/09/18 11:39:37;;;;;;;;;;;;;;;29.75;50.92;100161.47;5031445;28;876;-68
2023/09/18 11:42:17;;;;;;;;;;;;;;;30.23;53.54;100160.03;5031342;28;1144;-67
2023/09/18 11:44:47;;;;;;;;;;;;;;;30.61;53.14;100174.47;5031699;28;887;-69
2023/09/18 11:47:21;;;;;;;;;;;;;;;30.88;54.69;100158.41;5031427;28;868;-70
2023/09/18 11:49:58;;;;;;;;;;;;;;;29.49;57.08;100171.19;5031310;28;1882;-69
2023/09/18 11:52:26;;;;;;;;;;;;;;;27.89;58.43;100182.59;5032464;28;1184;-69
2023/09/18 11:54:55;;;;;;;;;;;;;;;26.50;57.10;100184.25;5035618;28;903;-70
2023/09/18 11:57:23;;;;;;;;;;;;;;;26.01;62.10;100180.47;5033923;28;1213;-69
2023/09/18 11:59:52;;;;;;;;;;;;;;;27.15;59.56;100172.25;5035134;28;844;-69
2023/09/18 12:02:28;;;;;;;;;;;;;;;28.49;59.26;100170.22;5035393;28;873;-69
2023/09/18 12:04:55;;;;;;;;;;;;;;;29.53;53.12;100162.34;5035034;28;836;-69
2023/09/18 12:07:24;;;;;;;;;;;;;;;30.23;53.27;100162.13;5034812;28;876;-69
2023/09/18 12:09:54;;;;;;;;;;;;;;;30.64;48.38;100164.88;5017111;28;1937;-68
2023/09/18 12:12:21;;;;;;;;;;;;;;;30.58;49.57;100167.00;5035119;28;1043;-69
2023/09/18 12:14:48;;;;;;;;;;;;;;;31.18;51.57;100171.78;5034728;28;1252;-69
2023/09/18 12:17:15;;;;;;;;;;;;;;;31.47;51.46;100155.06;5034762;28;879;-69
2023/09/18 12:19:51;;;;;;;;;;;;;;;31.25;48.77;100162.59;5034699;28;844;-68
2023/09/18 12:22:27;;;;;;;;;;;;;;;30.76;48.92;100165.50;5034671;28;832;-66
2023/09/18 12:25:08;;;;;;;;;;;;;;;30.67;50.96;100163.03;5033452;28;1433;-69
2023/09/18 12:27:36;;;;;;;;;;;;;;;31.00;50.47;100161.88;5034531;28;1918;-69
2023/09/18 12:30:04;;;;;;;;;;;;;;;31.35;50.78;100160.16;5034591;28;817;-67
2023/09/18 12:32:32;;;;;;;;;;;;;;;31.52;51.09;100159.94;5034471;28;848;-68
2023/09/18 12:35:00;;;;;;;;;;;;;;;31.17;49.79;100158.06;5034337;28;812;-67
2023/09/18 12:37:27;;;;;;;;;;;;;;;30.61;49.93;100159.47;5034300;28;911;-69
2023/09/18 12:39:54;;;;;;;;;;;;;;;29.76;49.90;100156.53;5034300;28;868;-69
2023/09/18 12:42:21;;;;;;;;;;;;;;;29.45;53.42;100150.75;5034443;28;829;-68
2023/09/18 12:44:49;;;;;;;;;;;;;;;29.49;55.31;100139.84;5034509;28;914;-69
2023/09/18 12:47:16;;;;;;;;;;;;;;;29.39;53.56;100149.25;5034238;28;858;-69
2023/09/18 12:49:44;;;;;;;;;;;;;;;29.20;57.97;100140.53;5034099;28;1885;-68
2023/09/18 12:52:10;;;;;;;;;;;;;;;29.07;56.61;100144.69;5034223;28;827;-68
2023/09/18 12:54:41;;;;;;;;;;;;;;;28.98;57.95;100130.78;5034361;28;820;-68
2023/09/18 12:57:08;;;;;;;;;;;;;;;29.21;60.23;100144.91;5034137;28;871;-68
2023/09/18 12:59:37;;;;;;;;;;;;;;;29.21;59.25;100139.22;5034086;28;808;-68
2023/09/18 13:02:04;;;;;;;;;;;;;;;29.20;61.24;100132.00;5034418;28;830;-68
2023/09/18 13:04:36;;;;;;;;;;;;;;;29.08;60.66;100134.09;5033448;28;1213;-68
2023/09/18 13:07:16;;;;;;;;;;;;;;;28.55;56.63;100136.06;5033684;28;831;-68
2023/09/18 13:09:43;;;;;;;;;;;;;;;28.28;59.02;100132.75;5033835;28;1886;-68
2023/09/18 13:12:10;;;;;;;;;;;;;;;27.88;58.24;100141.25;5033979;28;910;-67
2023/09/18 13:14:55;;;;;;;;;;;;;;;27.60;57.12;100132.69;5033780;28;1285;-67
2023/09/18 13:17:23;;;;;;;;;;;;;;;27.74;61.33;100125.22;5033424;28;856;-67
2023/09/18 13:19:51;;;;;;;;;;;;;;;27.84;62.22;100131.41;5033857;28;883;-68
2023/09/18 13:22:25;;;;;;;;;;;;;;;27.60;61.11;100129.06;5033536;28;846;-68
2023/09/18 13:24:58;;;;;;;;;;;;;;;27.34;60.06;100132.88;5033599;28;892;-69
2023/09/18 13:27:25;;;;;;;;;;;;;;;27.03;58.96;100131.72;5033731;28;817;-69